Colgate, North Dakota
Current Conditions -  °F | °C
As of 4:35 PM on Friday 24 Oct 2014 (Local Time) from KBAC Reporting Station
Clear Clear  
Wind Chill: 72°   Ceiling: Unl
Heat Index: 72°   Visibility: 10mi
Dew Point: 41°   Wind: 25mph
Humidity: 33%   Direction: 290°WNW
Pressure: 29.83"   Gusts: 29mph
Location:  47.1965°N, 97.7696°W
Report Text: KBAC 242135Z AUTO 29022G25KT 10SM CLR 22/05 A2983 RMK AO2
Loading
Personal Weather Stations






























Interactive Weather Map
Tropical Storm Tracking
New forecast layout! Learn more

10-Day Weather Forecast

Advertisements
Track Severe Weather on mobile